sensor_id;sensor_type;location;lat;lon;timestamp;pressure;altitude;pressure_sealevel;temperature;humidity
69751;BME280;57335;52.288;6.056;2023-03-03T00:00:49;102567.81;;;0.92;100.00
69751;BME280;57335;52.288;6.056;2023-03-03T00:03:19;102573.19;;;0.89;100.00
69751;BME280;57335;52.288;6.056;2023-03-03T00:05:46;102569.94;;;0.73;100.00
69751;BME280;57335;52.288;6.056;2023-03-03T00:08:12;102570.75;;;0.73;100.00
69751;BME280;57335;52.288;6.056;2023-03-03T00:10:39;102569.69;;;0.63;100.00
69751;BME280;57335;52.288;6.056;2023-03-03T00:13:15;102576.72;;;0.74;100.00
69751;BME280;57335;52.288;6.056;2023-03-03T00:15:41;102566.38;;;0.61;100.00
69751;BME280;57335;52.288;6.056;2023-03-03T00:18:35;102572.56;;;0.58;100.00
69751;BME280;57335;52.288;6.056;2023-03-03T00:21:03;102586.94;;;0.63;100.00
69751;BME280;57335;52.288;6.056;2023-03-03T00:23:39;102586.28;;;0.59;100.00
69751;BME280;57335;52.288;6.056;2023-03-03T00:26:20;102575.25;;;0.57;100.00
69751;BME280;57335;52.288;6.056;2023-03-03T00:28:48;102579.25;;;0.48;100.00
69751;BME280;57335;52.288;6.056;2023-03-03T00:31:35;102571.50;;;0.48;100.00
69751;BME280;57335;52.288;6.056;2023-03-03T00:34:20;102573.44;;;0.45;100.00
69751;BME280;57335;52.288;6.056;2023-03-03T00:36:52;102586.47;;;0.56;100.00
69751;BME280;57335;52.288;6.056;2023-03-03T00:39:36;102587.81;;;0.49;100.00
69751;BME280;57335;52.288;6.056;2023-03-03T00:42:16;102586.78;;;0.51;100.00
69751;BME280;57335;52.288;6.056;2023-03-03T00:44:45;102585.91;;;0.65;100.00
69751;BME280;57335;52.288;6.056;2023-03-03T00:47:31;102591.31;;;0.75;100.00
69751;BME280;57335;52.288;6.056;2023-03-03T00:52:45;102581.22;;;0.57;100.00
69751;BME280;57335;52.288;6.056;2023-03-03T00:55:16;102588.38;;;0.67;100.00
69751;BME280;57335;52.288;6.056;2023-03-03T00:57:43;102591.69;;;0.69;100.00
69751;BME280;57335;52.288;6.056;2023-03-03T01:00:10;102587.13;;;0.59;100.00
69751;BME280;57335;52.288;6.056;2023-03-03T01:02:36;102586.19;;;0.61;100.00
69751;BME280;57335;52.288;6.056;2023-03-03T01:05:03;102589.06;;;0.56;100.00
69751;BME280;57335;52.288;6.056;2023-03-03T01:07:29;102570.66;;;0.48;100.00
69751;BME280;57335;52.288;6.056;2023-03-03T01:09:56;102560.00;;;0.39;100.00
69751;BME280;57335;52.288;6.056;2023-03-03T01:12:22;102588.31;;;0.54;100.00
69751;BME280;57335;52.288;6.056;2023-03-03T01:14:49;102575.09;;;0.46;100.00
69751;BME280;57335;52.288;6.056;2023-03-03T01:17:15;102576.75;;;0.47;100.00
69751;BME280;57335;52.288;6.056;2023-03-03T01:19:42;102583.47;;;0.49;100.00
69751;BME280;57335;52.288;6.056;2023-03-03T01:22:08;102583.81;;;0.57;100.00
69751;BME280;57335;52.288;6.056;2023-03-03T01:24:34;102587.03;;;0.61;100.00
69751;BME280;57335;52.288;6.056;2023-03-03T01:27:01;102572.13;;;0.52;100.00
69751;BME280;57335;52.288;6.056;2023-03-03T01:29:27;102565.41;;;0.49;100.00
69751;BME280;57335;52.288;6.056;2023-03-03T01:31:53;102567.16;;;0.49;100.00
69751;BME280;57335;52.288;6.056;2023-03-03T01:34:20;102575.97;;;0.59;100.00
69751;BME280;57335;52.288;6.056;2023-03-03T01:36:46;102567.69;;;0.54;100.00
69751;BME280;57335;52.288;6.056;2023-03-03T01:39:12;102577.59;;;0.60;100.00
69751;BME280;57335;52.288;6.056;2023-03-03T01:41:39;102583.06;;;0.55;100.00
69751;BME280;57335;52.288;6.056;2023-03-03T01:44:06;102577.09;;;0.55;100.00
69751;BME280;57335;52.288;6.056;2023-03-03T01:50:02;102581.22;;;0.57;100.00
69751;BME280;57335;52.288;6.056;2023-03-03T01:52:33;102568.19;;;0.46;100.00
69751;BME280;57335;52.288;6.056;2023-03-03T01:55:06;102583.06;;;0.55;100.00
69751;BME280;57335;52.288;6.056;2023-03-03T01:57:36;102580.97;;;0.48;100.00
69751;BME280;57335;52.288;6.056;2023-03-03T02:00:04;102574.91;;;0.49;100.00
69751;BME280;57335;52.288;6.056;2023-03-03T02:02:32;102589.31;;;0.66;100.00
69751;BME280;57335;52.288;6.056;2023-03-03T02:05:00;102580.44;;;0.70;100.00
69751;BME280;57335;52.288;6.056;2023-03-03T02:07:26;102582.59;;;0.63;100.00
69751;BME280;57335;52.288;6.056;2023-03-03T02:09:58;102571.28;;;0.51;100.00
69751;BME280;57335;52.288;6.056;2023-03-03T02:12:51;102580.56;;;0.68;100.00
69751;BME280;57335;52.288;6.056;2023-03-03T02:15:23;102579.19;;;0.63;100.00
69751;BME280;57335;52.288;6.056;2023-03-03T02:17:55;102580.00;;;0.63;100.00
69751;BME280;57335;52.288;6.056;2023-03-03T02:20:32;102571.72;;;0.58;100.00
69751;BME280;57335;52.288;6.056;2023-03-03T02:23:07;102582.88;;;0.58;100.00
69751;BME280;57335;52.288;6.056;2023-03-03T02:25:44;102572.03;;;0.53;100.00
69751;BME280;57335;52.288;6.056;2023-03-03T02:28:14;102576.66;;;0.48;100.00
69751;BME280;57335;52.288;6.056;2023-03-03T02:30:40;102562.41;;;0.43;100.00
69751;BME280;57335;52.288;6.056;2023-03-03T02:33:07;102573.44;;;0.45;100.00
69751;BME280;57335;52.288;6.056;2023-03-03T02:35:36;102568.56;;;0.40;100.00
69751;BME280;57335;52.288;6.056;2023-03-03T02:40:41;102580.06;;;0.49;100.00
69751;BME280;57335;52.288;6.056;2023-03-03T02:43:10;102582.00;;;0.45;100.00
69751;BME280;57335;52.288;6.056;2023-03-03T02:45:44;102576.59;;;0.35;100.00
69751;BME280;57335;52.288;6.056;2023-03-03T02:48:10;102568.41;;;0.29;100.00
69751;BME280;57335;52.288;6.056;2023-03-03T02:50:37;102575.78;;;0.35;100.00
69751;BME280;57335;52.288;6.056;2023-03-03T02:53:03;102585.53;;;0.44;100.00
69751;BME280;57335;52.288;6.056;2023-03-03T02:55:30;102556.94;;;0.47;100.00
69751;BME280;57335;52.288;6.056;2023-03-03T02:57:56;102564.19;;;0.55;100.00
69751;BME280;57335;52.288;6.056;2023-03-03T03:00:23;102572.81;;;0.68;100.00
69751;BME280;57335;52.288;6.056;2023-03-03T03:02:49;102567.09;;;0.63;100.00
69751;BME280;57335;52.288;6.056;2023-03-03T03:05:15;102579.84;;;0.79;100.00
69751;BME280;57335;52.288;6.056;2023-03-03T03:07:42;102575.19;;;0.71;100.00
69751;BME280;57335;52.288;6.056;2023-03-03T03:10:08;102573.41;;;0.59;100.00
69751;BME280;57335;52.288;6.056;2023-03-03T03:12:35;102564.72;;;0.60;100.00
69751;BME280;57335;52.288;6.056;2023-03-03T03:15:01;102585.34;;;0.60;100.00
69751;BME280;57335;52.288;6.056;2023-03-03T03:17:28;102582.34;;;0.53;100.00
69751;BME280;57335;52.288;6.056;2023-03-03T03:19:54;102587.47;;;0.41;100.00
69751;BME280;57335;52.288;6.056;2023-03-03T03:22:20;102583.84;;;0.43;100.00
69751;BME280;57335;52.288;6.056;2023-03-03T03:24:47;102585.22;;;0.49;100.00
69751;BME280;57335;52.288;6.056;2023-03-03T03:27:13;102583.66;;;0.46;100.00
69751;BME280;57335;52.288;6.056;2023-03-03T03:29:39;102584.59;;;0.45;100.00
69751;BME280;57335;52.288;6.056;2023-03-03T03:32:06;102583.94;;;0.42;100.00
69751;BME280;57335;52.288;6.056;2023-03-03T03:34:32;102580.50;;;0.28;100.00
69751;BME280;57335;52.288;6.056;2023-03-03T03:36:59;102586.16;;;0.33;100.00
69751;BME280;57335;52.288;6.056;2023-03-03T03:39:25;102585.44;;;0.31;100.00
69751;BME280;57335;52.288;6.056;2023-03-03T03:41:51;102590.97;;;0.25;100.00
69751;BME280;57335;52.288;6.056;2023-03-03T03:44:18;102575.72;;;0.22;100.00
69751;BME280;57335;52.288;6.056;2023-03-03T03:46:44;102596.97;;;0.26;100.00
69751;BME280;57335;52.288;6.056;2023-03-03T03:49:10;102597.50;;;0.31;100.00
69751;BME280;57335;52.288;6.056;2023-03-03T03:51:37;102598.63;;;0.27;100.00
69751;BME280;57335;52.288;6.056;2023-03-03T03:54:03;102583.63;;;0.19;100.00
69751;BME280;57335;52.288;6.056;2023-03-03T03:56:29;102599.44;;;0.27;100.00
69751;BME280;57335;52.288;6.056;2023-03-03T03:58:56;102585.25;;;0.20;100.00
69751;BME280;57335;52.288;6.056;2023-03-03T04:01:22;102595.31;;;0.25;100.00
69751;BME280;57335;52.288;6.056;2023-03-03T04:03:49;102582.16;;;0.15;100.00
69751;BME280;57335;52.288;6.056;2023-03-03T04:06:15;102583.81;;;0.16;100.00
69751;BME280;57335;52.288;6.056;2023-03-03T04:08:41;102592.75;;;0.25;100.00
69751;BME280;57335;52.288;6.056;2023-03-03T04:11:08;102598.97;;;0.35;100.00
69751;BME280;57335;52.288;6.056;2023-03-03T04:13:34;102610.75;;;0.39;100.00
69751;BME280;57335;52.288;6.056;2023-03-03T04:16:01;102593.81;;;0.35;100.00
69751;BME280;57335;52.288;6.056;2023-03-03T04:18:27;102597.66;;;0.42;100.00
69751;BME280;57335;52.288;6.056;2023-03-03T04:20:54;102592.16;;;0.34;100.00
69751;BME280;57335;52.288;6.056;2023-03-03T04:23:20;102602.09;;;0.40;100.00
69751;BME280;57335;52.288;6.056;2023-03-03T04:25:47;102607.16;;;0.42;100.00
69751;BME280;57335;52.288;6.056;2023-03-03T04:28:15;102596.09;;;0.39;100.00
69751;BME280;57335;52.288;6.056;2023-03-03T04:30:41;102607.25;;;0.40;100.00
69751;BME280;57335;52.288;6.056;2023-03-03T04:33:08;102597.03;;;0.38;100.00
69751;BME280;57335;52.288;6.056;2023-03-03T04:35:35;102606.34;;;0.41;100.00
69751;BME280;57335;52.288;6.056;2023-03-03T04:38:01;102597.13;;;0.37;100.00
69751;BME280;57335;52.288;6.056;2023-03-03T04:40:28;102600.53;;;0.37;100.00
69751;BME280;57335;52.288;6.056;2023-03-03T04:42:54;102607.34;;;0.38;100.00
69751;BME280;57335;52.288;6.056;2023-03-03T04:45:20;102600.53;;;0.37;100.00
69751;BME280;57335;52.288;6.056;2023-03-03T04:47:47;102590.69;;;0.30;100.00
69751;BME280;57335;52.288;6.056;2023-03-03T04:50:13;102600.53;;;0.37;100.00
69751;BME280;57335;52.288;6.056;2023-03-03T04:52:39;102595.13;;;0.28;100.00
69751;BME280;57335;52.288;6.056;2023-03-03T04:55:06;102606.88;;;0.46;100.00
69751;BME280;57335;52.288;6.056;2023-03-03T04:57:35;102585.88;;;0.38;100.00
69751;BME280;57335;52.288;6.056;2023-03-03T05:00:02;102590.22;;;0.37;100.00
69751;BME280;57335;52.288;6.056;2023-03-03T05:02:29;102595.00;;;0.44;100.00
69751;BME280;57335;52.288;6.056;2023-03-03T05:04:55;102592.97;;;0.49;100.00
69751;BME280;57335;52.288;6.056;2023-03-03T05:07:21;102593.69;;;0.51;100.00
69751;BME280;57335;52.288;6.056;2023-03-03T05:09:48;102576.28;;;0.40;100.00
69751;BME280;57335;52.288;6.056;2023-03-03T05:12:14;102591.41;;;0.46;100.00
69751;BME280;57335;52.288;6.056;2023-03-03T05:14:40;102588.28;;;0.41;100.00
69751;BME280;57335;52.288;6.056;2023-03-03T05:17:07;102596.56;;;0.46;100.00
69751;BME280;57335;52.288;6.056;2023-03-03T05:19:33;102578.69;;;0.43;100.00
69751;BME280;57335;52.288;6.056;2023-03-03T05:22:00;102587.97;;;0.46;100.00
69751;BME280;57335;52.288;6.056;2023-03-03T05:24:26;102593.03;;;0.47;100.00
69751;BME280;57335;52.288;6.056;2023-03-03T05:26:53;102596.78;;;0.56;100.00
69751;BME280;57335;52.288;6.056;2023-03-03T05:29:19;102600.41;;;0.53;100.00
69751;BME280;57335;52.288;6.056;2023-03-03T05:31:45;102602.06;;;0.54;100.00
69751;BME280;57335;52.288;6.056;2023-03-03T05:34:12;102590.03;;;0.41;100.00
69751;BME280;57335;52.288;6.056;2023-03-03T05:36:38;102585.13;;;0.50;100.00
69751;BME280;57335;52.288;6.056;2023-03-03T05:39:05;102587.16;;;0.45;100.00
69751;BME280;57335;52.288;6.056;2023-03-03T05:41:31;102605.47;;;0.55;100.00
69751;BME280;57335;52.288;6.056;2023-03-03T05:43:57;102610.34;;;0.59;100.00
69751;BME280;57335;52.288;6.056;2023-03-03T05:46:24;102606.19;;;0.57;100.00
69751;BME280;57335;52.288;6.056;2023-03-03T05:48:50;102608.69;;;0.58;100.00
69751;BME280;57335;52.288;6.056;2023-03-03T05:51:16;102599.88;;;0.48;100.00
69751;BME280;57335;52.288;6.056;2023-03-03T05:53:43;102619.56;;;0.49;100.00
69751;BME280;57335;52.288;6.056;2023-03-03T05:56:09;102602.47;;;0.48;100.00
69751;BME280;57335;52.288;6.056;2023-03-03T05:58:35;102602.97;;;0.53;100.00
69751;BME280;57335;52.288;6.056;2023-03-03T06:01:02;102603.81;;;0.54;100.00
69751;BME280;57335;52.288;6.056;2023-03-03T06:03:28;102617.91;;;0.63;100.00
69751;BME280;57335;52.288;6.056;2023-03-03T06:05:55;102600.22;;;0.56;100.00
69751;BME280;57335;52.288;6.056;2023-03-03T06:08:21;102605.09;;;0.61;100.00
69751;BME280;57335;52.288;6.056;2023-03-03T06:10:47;102603.31;;;0.62;100.00
69751;BME280;57335;52.288;6.056;2023-03-03T06:13:14;102616.03;;;0.65;100.00
69751;BME280;57335;52.288;6.056;2023-03-03T06:15:40;102603.72;;;0.55;100.00
69751;BME280;57335;52.288;6.056;2023-03-03T06:18:06;102617.59;;;0.67;100.00
69751;BME280;57335;52.288;6.056;2023-03-03T06:20:33;102605.81;;;0.63;100.00
69751;BME280;57335;52.288;6.056;2023-03-03T06:23:00;102617.91;;;0.63;100.00
69751;BME280;57335;52.288;6.056;2023-03-03T06:25:26;102600.00;;;0.59;100.00
69751;BME280;57335;52.288;6.056;2023-03-03T06:27:53;102609.31;;;0.62;100.00
69751;BME280;57335;52.288;6.056;2023-03-03T06:30:19;102599.09;;;0.61;100.00
69751;BME280;57335;52.288;6.056;2023-03-03T06:32:46;102605.41;;;0.69;100.00
69751;BME280;57335;52.288;6.056;2023-03-03T06:35:12;102596.66;;;0.72;100.00
69751;BME280;57335;52.288;6.056;2023-03-03T06:37:39;102620.94;;;0.82;100.00
69751;BME280;57335;52.288;6.056;2023-03-03T06:40:06;102618.47;;;0.81;100.00
69751;BME280;57335;52.288;6.056;2023-03-03T06:42:32;102608.81;;;0.70;100.00
69751;BME280;57335;52.288;6.056;2023-03-03T06:44:59;102606.69;;;0.76;100.00
69751;BME280;57335;52.288;6.056;2023-03-03T06:47:25;102609.72;;;0.83;100.00
69751;BME280;57335;52.288;6.056;2023-03-03T06:49:51;102616.88;;;0.92;100.00
69751;BME280;57335;52.288;6.056;2023-03-03T06:52:19;102624.72;;;1.04;100.00
69751;BME280;57335;52.288;6.056;2023-03-03T06:54:48;102630.00;;;1.02;100.00
69751;BME280;57335;52.288;6.056;2023-03-03T06:57:32;102637.66;;;1.04;100.00
69751;BME280;57335;52.288;6.056;2023-03-03T07:00:14;102636.09;;;1.01;100.00
69751;BME280;57335;52.288;6.056;2023-03-03T07:02:42;102648.50;;;1.09;100.00
69751;BME280;57335;52.288;6.056;2023-03-03T07:05:13;102630.63;;;1.06;100.00
69751;BME280;57335;52.288;6.056;2023-03-03T07:07:40;102642.06;;;1.02;100.00
69751;BME280;57335;52.288;6.056;2023-03-03T07:10:33;102650.38;;;1.07;100.00
69751;BME280;57335;52.288;6.056;2023-03-03T07:13:26;102660.25;;;1.00;100.00
69751;BME280;57335;52.288;6.056;2023-03-03T07:15:55;102655.94;;;1.01;100.00
69751;BME280;57335;52.288;6.056;2023-03-03T07:18:43;102663.28;;;1.07;100.00
69751;BME280;57335;52.288;6.056;2023-03-03T07:23:49;102662.41;;;1.21;100.00
69751;BME280;57335;52.288;6.056;2023-03-03T07:26:19;102646.44;;;1.14;100.00
69751;BME280;57335;52.288;6.056;2023-03-03T07:28:52;102661.53;;;1.20;100.00
69751;BME280;57335;52.288;6.056;2023-03-03T07:31:24;102675.41;;;1.19;100.00
69751;BME280;57335;52.288;6.056;2023-03-03T07:33:52;102668.56;;;1.18;100.00
69751;BME280;57335;52.288;6.056;2023-03-03T07:36:30;102674.28;;;1.23;100.00
69751;BME280;57335;52.288;6.056;2023-03-03T07:39:02;102675.91;;;1.24;100.00
69751;BME280;57335;52.288;6.056;2023-03-03T07:41:29;102664.84;;;1.22;100.00
69751;BME280;57335;52.288;6.056;2023-03-03T07:44:06;102673.78;;;1.31;100.00
69751;BME280;57335;52.288;6.056;2023-03-03T07:46:43;102689.69;;;1.37;100.00
69751;BME280;57335;52.288;6.056;2023-03-03T07:49:33;102701.81;;;1.50;100.00
69751;BME280;57335;52.288;6.056;2023-03-03T07:52:00;102692.09;;;1.41;100.00
69751;BME280;57335;52.288;6.056;2023-03-03T07:54:38;102701.88;;;1.35;100.00
69751;BME280;57335;52.288;6.056;2023-03-03T07:57:34;102698.97;;;1.27;100.00
69751;BME280;57335;52.288;6.056;2023-03-03T08:02:44;102700.13;;;1.36;100.00
69751;BME280;57335;52.288;6.056;2023-03-03T08:05:37;102716.59;;;1.48;100.00
69751;BME280;57335;52.288;6.056;2023-03-03T08:10:42;102713.19;;;1.60;100.00
69751;BME280;57335;52.288;6.056;2023-03-03T08:13:20;102708.97;;;1.59;100.00
69751;BME280;57335;52.288;6.056;2023-03-03T08:18:39;102717.69;;;1.84;100.00
69751;BME280;57335;52.288;6.056;2023-03-03T08:23:33;102725.75;;;1.92;100.00
69751;BME280;57335;52.288;6.056;2023-03-03T08:26:00;102729.09;;;2.07;100.00
69751;BME280;57335;52.288;6.056;2023-03-03T08:28:26;102720.19;;;2.11;100.00
69751;BME280;57335;52.288;6.056;2023-03-03T08:30:53;102728.56;;;2.27;100.00
69751;BME280;57335;52.288;6.056;2023-03-03T08:33:38;102715.81;;;2.37;100.00
69751;BME280;57335;52.288;6.056;2023-03-03T08:36:06;102712.69;;;2.57;100.00
69751;BME280;57335;52.288;6.056;2023-03-03T08:38:35;102707.69;;;2.54;100.00
69751;BME280;57335;52.288;6.056;2023-03-03T08:41:03;102707.06;;;2.64;100.00
69751;BME280;57335;52.288;6.056;2023-03-03T08:43:29;102709.50;;;2.78;100.00
69751;BME280;57335;52.288;6.056;2023-03-03T08:45:59;102726.75;;;2.90;100.00
69751;BME280;57335;52.288;6.056;2023-03-03T08:48:26;102714.34;;;2.95;100.00
69751;BME280;57335;52.288;6.056;2023-03-03T08:50:53;102719.28;;;3.23;100.00
69751;BME280;57335;52.288;6.056;2023-03-03T08:53:20;102731.34;;;3.59;100.00
69751;BME280;57335;52.288;6.056;2023-03-03T08:55:46;102731.16;;;3.85;100.00
69751;BME280;57335;52.288;6.056;2023-03-03T08:58:15;102721.63;;;3.85;100.00
69751;BME280;57335;52.288;6.056;2023-03-03T09:00:42;102723.84;;;3.90;100.00
69751;BME280;57335;52.288;6.056;2023-03-03T09:03:08;102720.66;;;3.86;100.00
69751;BME280;57335;52.288;6.056;2023-03-03T09:05:36;102731.41;;;4.04;100.00
69751;BME280;57335;52.288;6.056;2023-03-03T09:08:04;102734.38;;;3.99;100.00
69751;BME280;57335;52.288;6.056;2023-03-03T09:10:31;102725.97;;;3.85;100.00
69751;BME280;57335;52.288;6.056;2023-03-03T09:13:01;102727.50;;;3.87;100.00
69751;BME280;57335;52.288;6.056;2023-03-03T09:15:30;102717.09;;;3.76;100.00
69751;BME280;57335;52.288;6.056;2023-03-03T09:18:12;102721.03;;;3.93;100.00
69751;BME280;57335;52.288;6.056;2023-03-03T09:20:44;102707.97;;;4.28;100.00
69751;BME280;57335;52.288;6.056;2023-03-03T09:23:24;102712.75;;;4.89;100.00
69751;BME280;57335;52.288;6.056;2023-03-03T09:25:53;102715.72;;;5.49;99.85
69751;BME280;57335;52.288;6.056;2023-03-03T09:28:30;102723.19;;;5.85;97.35
69751;BME280;57335;52.288;6.056;2023-03-03T09:31:00;102723.56;;;6.01;94.56
69751;BME280;57335;52.288;6.056;2023-03-03T09:33:41;102718.25;;;5.82;95.15
69751;BME280;57335;52.288;6.056;2023-03-03T09:36:20;102709.81;;;5.68;93.71
69751;BME280;57335;52.288;6.056;2023-03-03T09:38:48;102708.00;;;5.27;95.67
69751;BME280;57335;52.288;6.056;2023-03-03T09:41:28;102725.41;;;5.47;96.48
69751;BME280;57335;52.288;6.056;2023-03-03T09:47:14;102721.88;;;5.05;98.70
69751;BME280;57335;52.288;6.056;2023-03-03T09:50:07;102720.16;;;4.94;97.56
69751;BME280;57335;52.288;6.056;2023-03-03T09:59:14;102733.03;;;4.95;97.97
69751;BME280;57335;52.288;6.056;2023-03-03T10:05:07;102731.97;;;4.87;97.25
69751;BME280;57335;52.288;6.056;2023-03-03T10:07:25;102737.06;;;4.88;98.99
69751;BME280;57335;52.288;6.056;2023-03-03T10:10:15;102739.16;;;5.06;96.84
69751;BME280;57335;52.288;6.056;2023-03-03T10:18:38;102733.50;;;5.75;94.77
69751;BME280;57335;52.288;6.056;2023-03-03T10:21:10;102746.69;;;6.25;92.16
69751;BME280;57335;52.288;6.056;2023-03-03T10:29:32;102728.13;;;6.90;87.21
69751;BME280;57335;52.288;6.056;2023-03-03T10:32:42;102741.94;;;6.71;88.18
69751;BME280;57335;52.288;6.056;2023-03-03T10:35:22;102736.66;;;6.51;87.52
69751;BME280;57335;52.288;6.056;2023-03-03T10:40:45;102730.78;;;6.59;87.20
69751;BME280;57335;52.288;6.056;2023-03-03T10:46:14;102738.72;;;7.08;95.60
69751;BME280;57335;52.288;6.056;2023-03-03T10:54:37;102742.81;;;7.39;83.09
69751;BME280;57335;52.288;6.056;2023-03-03T11:02:56;102736.22;;;7.65;80.49
69751;BME280;57335;52.288;6.056;2023-03-03T11:05:54;102720.47;;;7.37;81.24
69751;BME280;57335;52.288;6.056;2023-03-03T11:08:30;102718.78;;;7.55;83.93
69751;BME280;57335;52.288;6.056;2023-03-03T11:16:43;102728.41;;;8.49;78.24
69751;BME280;57335;52.288;6.056;2023-03-03T11:22:05;102728.56;;;8.10;78.16
69751;BME280;57335;52.288;6.056;2023-03-03T11:27:17;102724.44;;;7.31;77.51
69751;BME280;57335;52.288;6.056;2023-03-03T11:30:01;102710.84;;;6.98;79.91
69751;BME280;57335;52.288;6.056;2023-03-03T11:32:48;102719.06;;;7.13;81.76
69751;BME280;57335;52.288;6.056;2023-03-03T11:35:22;102709.47;;;7.33;80.87
69751;BME280;57335;52.288;6.056;2023-03-03T11:38:06;102704.78;;;7.66;79.89
69751;BME280;57335;52.288;6.056;2023-03-03T11:40:40;102708.06;;;7.78;77.79
69751;BME280;57335;52.288;6.056;2023-03-03T11:43:21;102700.09;;;7.70;77.07
69751;BME280;57335;52.288;6.056;2023-03-03T11:46:08;102694.00;;;7.89;75.87
69751;BME280;57335;52.288;6.056;2023-03-03T11:48:45;102685.38;;;7.78;76.37
69751;BME280;57335;52.288;6.056;2023-03-03T11:51:29;102689.66;;;8.07;74.11
69751;BME280;57335;52.288;6.056;2023-03-03T11:54:02;102692.19;;;7.99;73.96
69751;BME280;57335;52.288;6.056;2023-03-03T11:56:49;102678.50;;;8.15;76.39
69751;BME280;57335;52.288;6.056;2023-03-03T11:59:46;102684.03;;;8.12;74.06
69751;BME280;57335;52.288;6.056;2023-03-03T12:05:16;102683.88;;;8.13;75.32
69751;BME280;57335;52.288;6.056;2023-03-03T12:10:50;102685.03;;;8.01;73.40
69751;BME280;57335;52.288;6.056;2023-03-03T12:13:29;102689.63;;;7.79;74.56
69751;BME280;57335;52.288;6.056;2023-03-03T12:16:11;102684.63;;;7.49;76.74
69751;BME280;57335;52.288;6.056;2023-03-03T12:27:18;102671.34;;;8.17;73.06
69751;BME280;57335;52.288;6.056;2023-03-03T12:35:28;102667.13;;;7.69;74.24
69751;BME280;57335;52.288;6.056;2023-03-03T12:41:20;102680.16;;;7.78;75.92
69751;BME280;57335;52.288;6.056;2023-03-03T12:43:57;102666.44;;;7.67;74.74
69751;BME280;57335;52.288;6.056;2023-03-03T12:46:38;102675.66;;;7.61;72.91
69751;BME280;57335;52.288;6.056;2023-03-03T12:49:05;102654.56;;;7.45;74.69
69751;BME280;57335;52.288;6.056;2023-03-03T12:52:11;102667.72;;;7.43;73.88
69751;BME280;57335;52.288;6.056;2023-03-03T12:54:55;102668.28;;;7.47;73.48
69751;BME280;57335;52.288;6.056;2023-03-03T12:57:43;102657.81;;;7.56;74.84
69751;BME280;57335;52.288;6.056;2023-03-03T13:00:26;102659.84;;;7.72;75.38
69751;BME280;57335;52.288;6.056;2023-03-03T13:03:05;102655.53;;;7.91;73.79
69751;BME280;57335;52.288;6.056;2023-03-03T13:11:58;102651.75;;;8.31;75.59
69751;BME280;57335;52.288;6.056;2023-03-03T13:14:35;102648.16;;;8.42;74.68
69751;BME280;57335;52.288;6.056;2023-03-03T13:17:17;102634.69;;;8.36;69.76
69751;BME280;57335;52.288;6.056;2023-03-03T13:19:58;102630.88;;;8.31;70.87
69751;BME280;57335;52.288;6.056;2023-03-03T13:22:44;102647.75;;;8.09;72.27
69751;BME280;57335;52.288;6.056;2023-03-03T13:26:37;102651.13;;;7.91;71.78
69751;BME280;57335;52.288;6.056;2023-03-03T13:31:14;102646.00;;;7.62;72.68
69751;BME280;57335;52.288;6.056;2023-03-03T13:33:56;102632.31;;;7.50;74.41
69751;BME280;57335;52.288;6.056;2023-03-03T13:37:19;102645.47;;;7.49;75.27
69751;BME280;57335;52.288;6.056;2023-03-03T13:39:57;102643.31;;;7.44;76.72
69751;BME280;57335;52.288;6.056;2023-03-03T13:42:44;102637.25;;;7.44;75.07
69751;BME280;57335;52.288;6.056;2023-03-03T13:50:50;102630.03;;;7.28;76.65
69751;BME280;57335;52.288;6.056;2023-03-03T13:53:36;102622.03;;;7.29;77.29
69751;BME280;57335;52.288;6.056;2023-03-03T13:56:38;102635.75;;;7.31;74.90
69751;BME280;57335;52.288;6.056;2023-03-03T13:59:29;102631.28;;;7.24;73.29
69751;BME280;57335;52.288;6.056;2023-03-03T14:02:00;102627.66;;;7.34;75.90
69751;BME280;57335;52.288;6.056;2023-03-03T14:04:37;102620.69;;;7.25;73.35
69751;BME280;57335;52.288;6.056;2023-03-03T14:07:15;102632.91;;;7.25;76.22
69751;BME280;57335;52.288;6.056;2023-03-03T14:12:28;102617.25;;;7.34;73.19
69751;BME280;57335;52.288;6.056;2023-03-03T14:18:30;102605.53;;;7.48;76.77
69751;BME280;57335;52.288;6.056;2023-03-03T14:21:03;102602.91;;;7.58;75.40
69751;BME280;57335;52.288;6.056;2023-03-03T14:23:55;102614.13;;;7.68;74.52
69751;BME280;57335;52.288;6.056;2023-03-03T14:26:24;102604.16;;;7.54;74.69
69751;BME280;57335;52.288;6.056;2023-03-03T14:29:04;102612.56;;;7.38;75.22
69751;BME280;57335;52.288;6.056;2023-03-03T14:31:39;102597.59;;;7.40;75.79
69751;BME280;57335;52.288;6.056;2023-03-03T14:36:56;102593.38;;;7.19;79.10
69751;BME280;57335;52.288;6.056;2023-03-03T14:39:33;102612.16;;;7.23;76.94
69751;BME280;57335;52.288;6.056;2023-03-03T14:42:54;102609.00;;;7.19;77.83
69751;BME280;57335;52.288;6.056;2023-03-03T14:45:32;102605.88;;;7.26;79.44
69751;BME280;57335;52.288;6.056;2023-03-03T14:48:15;102595.16;;;7.19;81.36
69751;BME280;57335;52.288;6.056;2023-03-03T14:50:50;102599.25;;;7.31;80.32
69751;BME280;57335;52.288;6.056;2023-03-03T14:55:45;102593.56;;;7.55;79.26
69751;BME280;57335;52.288;6.056;2023-03-03T14:58:24;102590.53;;;7.60;77.43
69751;BME280;57335;52.288;6.056;2023-03-03T15:01:12;102592.84;;;7.63;78.08
69751;BME280;57335;52.288;6.056;2023-03-03T15:03:44;102589.13;;;7.66;76.87
69751;BME280;57335;52.288;6.056;2023-03-03T15:06:12;102588.31;;;7.65;76.64
69751;BME280;57335;52.288;6.056;2023-03-03T15:08:52;102580.50;;;7.55;76.41
69751;BME280;57335;52.288;6.056;2023-03-03T15:11:31;102583.09;;;7.65;76.42
69751;BME280;57335;52.288;6.056;2023-03-03T15:14:12;102565.63;;;7.66;76.71
69751;BME280;57335;52.288;6.056;2023-03-03T15:16:39;102579.50;;;7.76;74.02
69751;BME280;57335;52.288;6.056;2023-03-03T15:19:15;102576.94;;;7.94;75.54
69751;BME280;57335;52.288;6.056;2023-03-03T15:22:02;102564.72;;;8.12;71.51
69751;BME280;57335;52.288;6.056;2023-03-03T15:24:37;102565.63;;;8.39;71.34